Time;durP1;ratioP1;P1;durP2;ratioP2;P2;SDS_P1;SDS_P2;PMS_P1;PMS_P2;Temp;Humidity;BMP_temperature;BMP_pressure;BME280_temperature;BME280_humidity;BME280_pressure;Samples;Min_cycle;Max_cycle;Signal;HPM_P1;HPM_P2
2021/04/19 00:00:07;;;;;;;;;;;20.00;52.60;;;;;;5038133;28;19924;-54
2021/04/19 00:02:34;;;;;;;;;;;20.00;52.10;;;;;;5039144;28;19971;-55
2021/04/19 00:05:00;;;;;;;;;;;20.00;52.10;;;;;;5039408;28;19926;-55
2021/04/19 00:07:26;;;;;;;;;;;20.00;52.20;;;;;;5035019;28;19932;-55
2021/04/19 00:09:53;;;;;;;;;;;20.00;52.20;;;;;;5039327;28;19925;-56
2021/04/19 00:12:19;;;;;;;;;;;20.00;52.40;;;;;;5045829;28;19925;-54
2021/04/19 00:14:45;;;;;;;;;;;20.00;52.40;;;;;;5048229;28;19937;-55
2021/04/19 00:17:11;;;;;;;;;;;19.90;52.30;;;;;;5044939;28;19929;-54
2021/04/19 00:19:37;;;;;;;;;;;19.90;52.40;;;;;;5042135;28;19986;-54
2021/04/19 00:22:04;;;;;;;;;;;19.90;52.40;;;;;;5045454;28;19924;-55
2021/04/19 00:24:30;;;;;;;;;;;19.90;52.40;;;;;;5028946;28;19971;-54
2021/04/19 00:26:56;;;;;;;;;;;19.90;52.50;;;;;;5029657;28;20413;-54
2021/04/19 00:29:22;;;;;;;;;;;19.90;52.60;;;;;;5024637;28;19937;-56
2021/04/19 00:31:49;;;;;;;;;;;19.90;52.50;;;;;;5016950;28;20395;-55
2021/04/19 00:34:15;;;;;;;;;;;19.90;52.50;;;;;;5023902;28;19925;-54
2021/04/19 00:36:41;;;;;;;;;;;19.80;52.50;;;;;;5013495;28;20382;-54
2021/04/19 00:39:07;;;;;;;;;;;19.80;52.50;;;;;;5022951;28;21520;-55
2021/04/19 00:41:34;;;;;;;;;;;19.80;52.50;;;;;;5031851;28;19929;-53
2021/04/19 00:44:00;;;;;;;;;;;19.80;52.60;;;;;;5026616;28;20467;-54
2021/04/19 00:46:26;;;;;;;;;;;19.80;52.60;;;;;;5019319;28;19933;-54
2021/04/19 00:48:52;;;;;;;;;;;19.80;52.60;;;;;;5026035;28;19960;-56
2021/04/19 00:51:19;;;;;;;;;;;19.80;52.60;;;;;;5027414;28;19940;-55
2021/04/19 00:53:45;;;;;;;;;;;19.80;52.60;;;;;;5025689;28;19932;-54
2021/04/19 00:56:11;;;;;;;;;;;19.80;52.60;;;;;;5027464;28;20283;-54
2021/04/19 00:58:39;;;;;;;;;;;19.80;52.50;;;;;;5028719;28;19929;-55
2021/04/19 01:01:07;;;;;;;;;;;19.80;52.50;;;;;;5026944;28;20362;-55
2021/04/19 01:03:34;;;;;;;;;;;19.70;52.50;;;;;;5025227;28;19948;-54
2021/04/19 01:06:01;;;;;;;;;;;19.70;52.60;;;;;;5026783;28;19932;-56
2021/04/19 01:08:27;;;;;;;;;;;19.70;52.50;;;;;;5034440;28;19948;-54
2021/04/19 01:10:58;;;;;;;;;;;19.70;52.50;;;;;;5027738;28;19933;-55
2021/04/19 01:13:25;;;;;;;;;;;19.70;52.50;;;;;;5028113;28;19925;-54
2021/04/19 01:15:51;;;;;;;;;;;19.70;52.50;;;;;;5021502;28;19932;-55
2021/04/19 01:18:17;;;;;;;;;;;19.70;52.50;;;;;;5021888;28;20448;-56
2021/04/19 01:20:44;;;;;;;;;;;19.60;52.40;;;;;;5027178;28;19925;-54
2021/04/19 01:23:11;;;;;;;;;;;19.60;52.40;;;;;;5026863;28;19945;-54
2021/04/19 01:25:37;;;;;;;;;;;19.60;52.50;;;;;;5040056;28;19924;-55
2021/04/19 01:28:04;;;;;;;;;;;19.60;52.40;;;;;;5037891;28;19943;-54
2021/04/19 01:30:39;;;;;;;;;;;19.60;52.50;;;;;;5031973;28;19963;-55
2021/04/19 01:33:06;;;;;;;;;;;19.60;52.40;;;;;;5034784;28;20336;-54
2021/04/19 01:35:33;;;;;;;;;;;19.60;52.40;;;;;;5045228;28;20034;-54
2021/04/19 01:37:59;;;;;;;;;;;19.60;52.40;;;;;;5046032;28;19992;-56
2021/04/19 01:40:35;;;;;;;;;;;19.60;52.40;;;;;;5047277;28;19943;-54
2021/04/19 01:43:02;;;;;;;;;;;19.60;52.40;;;;;;5043687;28;19924;-54
2021/04/19 01:45:28;;;;;;;;;;;19.60;52.40;;;;;;5027199;28;19925;-56
2021/04/19 01:47:55;;;;;;;;;;;19.60;52.40;;;;;;5040236;28;19925;-56
2021/04/19 01:50:22;;;;;;;;;;;19.60;52.40;;;;;;5049254;28;19928;-54
2021/04/19 01:52:49;;;;;;;;;;;19.50;52.30;;;;;;5049881;28;19932;-54
2021/04/19 01:55:17;;;;;;;;;;;19.50;52.30;;;;;;5026597;28;19926;-56
2021/04/19 01:57:44;;;;;;;;;;;19.50;52.30;;;;;;5048812;28;19924;-57
2021/04/19 02:00:11;;;;;;;;;;;19.50;52.30;;;;;;5038223;28;19932;-55
2021/04/19 02:02:46;;;;;;;;;;;19.50;52.30;;;;;;5044476;28;19925;-56
2021/04/19 02:05:27;;;;;;;;;;;19.50;52.30;;;;;;5034526;28;20695;-54
2021/04/19 02:08:03;;;;;;;;;;;19.40;52.30;;;;;;5023986;28;19925;-54
2021/04/19 02:10:32;;;;;;;;;;;19.50;52.30;;;;;;5035372;28;19932;-55
2021/04/19 02:13:05;;;;;;;;;;;19.40;52.20;;;;;;5041568;28;19925;-55
2021/04/19 02:15:32;;;;;;;;;;;19.50;52.30;;;;;;5033764;28;19971;-56
2021/04/19 02:18:07;;;;;;;;;;;19.40;52.20;;;;;;5046201;28;20590;-54
2021/04/19 02:20:52;;;;;;;;;;;19.40;52.20;;;;;;5038759;28;20416;-56
2021/04/19 02:23:26;;;;;;;;;;;19.40;52.20;;;;;;5007369;28;20730;-54
2021/04/19 02:25:56;;;;;;;;;;;19.40;52.20;;;;;;5046445;28;19925;-55
2021/04/19 02:28:26;;;;;;;;;;;19.40;52.20;;;;;;5046502;28;19929;-56
2021/04/19 02:31:00;;;;;;;;;;;19.40;52.20;;;;;;5047906;28;19929;-55
2021/04/19 02:33:29;;;;;;;;;;;19.40;52.10;;;;;;5046541;28;19929;-54
2021/04/19 02:35:56;;;;;;;;;;;19.30;52.00;;;;;;5030540;28;19932;-53
2021/04/19 02:38:24;;;;;;;;;;;19.40;52.10;;;;;;5046918;28;19924;-54
2021/04/19 02:40:51;;;;;;;;;;;19.40;52.10;;;;;;5044547;28;19925;-56
2021/04/19 02:43:18;;;;;;;;;;;19.30;52.00;;;;;;5047957;28;19925;-54
2021/04/19 02:45:44;;;;;;;;;;;19.30;52.00;;;;;;5047860;28;19932;-57
2021/04/19 02:48:12;;;;;;;;;;;19.30;52.00;;;;;;5038534;28;19932;-55
2021/04/19 02:50:39;;;;;;;;;;;19.30;52.00;;;;;;5044463;28;20569;-56
2021/04/19 02:53:05;;;;;;;;;;;19.30;52.00;;;;;;5048407;28;19932;-56
2021/04/19 02:55:32;;;;;;;;;;;19.30;52.00;;;;;;5044865;28;19929;-54
2021/04/19 02:58:02;;;;;;;;;;;19.30;52.00;;;;;;5045648;28;19944;-54
2021/04/19 03:00:33;;;;;;;;;;;19.30;51.90;;;;;;5047703;28;19947;-54
2021/04/19 03:03:01;;;;;;;;;;;19.30;52.00;;;;;;5042238;28;19932;-53
2021/04/19 03:05:28;;;;;;;;;;;19.30;52.00;;;;;;5044401;28;19979;-54
2021/04/19 03:08:00;;;;;;;;;;;19.30;52.10;;;;;;5049602;28;19925;-56
2021/04/19 03:10:29;;;;;;;;;;;19.30;52.10;;;;;;5048001;28;19940;-55
2021/04/19 03:12:56;;;;;;;;;;;19.20;52.00;;;;;;5047471;28;19925;-55
2021/04/19 03:15:24;;;;;;;;;;;19.30;52.10;;;;;;5046979;28;19931;-54
2021/04/19 03:17:52;;;;;;;;;;;19.20;52.00;;;;;;5027032;28;19952;-54
2021/04/19 03:20:20;;;;;;;;;;;19.20;51.90;;;;;;5029727;28;19925;-54
2021/04/19 03:22:47;;;;;;;;;;;19.20;52.00;;;;;;5045606;28;19932;-54
2021/04/19 03:25:14;;;;;;;;;;;19.20;51.90;;;;;;5027371;28;19926;-54
2021/04/19 03:27:41;;;;;;;;;;;19.20;52.00;;;;;;5028498;28;19948;-54
2021/04/19 03:30:08;;;;;;;;;;;19.20;51.90;;;;;;5015766;28;20019;-56
2021/04/19 03:32:38;;;;;;;;;;;19.20;51.90;;;;;;5011042;28;19937;-55
2021/04/19 03:35:16;;;;;;;;;;;19.20;51.90;;;;;;5027328;28;19924;-55
2021/04/19 03:37:44;;;;;;;;;;;19.20;51.90;;;;;;5028447;28;20393;-55
2021/04/19 03:40:18;;;;;;;;;;;19.20;51.90;;;;;;5027689;28;20811;-53
2021/04/19 03:42:46;;;;;;;;;;;19.20;51.90;;;;;;5023566;28;20833;-54
2021/04/19 03:45:13;;;;;;;;;;;19.20;51.80;;;;;;5028726;28;20338;-54
2021/04/19 03:47:40;;;;;;;;;;;19.20;51.80;;;;;;5017002;28;21928;-56
2021/04/19 03:50:08;;;;;;;;;;;19.20;51.80;;;;;;5026630;28;19932;-55
2021/04/19 03:52:36;;;;;;;;;;;19.20;51.80;;;;;;5022170;28;19933;-54
2021/04/19 03:55:04;;;;;;;;;;;19.10;51.70;;;;;;5023647;28;19929;-54
2021/04/19 03:57:31;;;;;;;;;;;19.10;51.80;;;;;;5024522;28;19925;-55
2021/04/19 04:00:01;;;;;;;;;;;19.10;51.70;;;;;;5019283;28;19940;-54
2021/04/19 04:02:28;;;;;;;;;;;19.10;51.70;;;;;;5014613;28;20294;-54
2021/04/19 04:04:56;;;;;;;;;;;19.10;51.70;;;;;;5011678;28;20302;-55
2021/04/19 04:07:23;;;;;;;;;;;19.10;51.70;;;;;;5011051;28;19941;-56
2021/04/19 04:09:50;;;;;;;;;;;19.10;51.70;;;;;;5008831;28;19929;-54
2021/04/19 04:12:16;;;;;;;;;;;19.10;51.70;;;;;;5018342;28;19926;-55
2021/04/19 04:14:52;;;;;;;;;;;19.10;51.70;;;;;;5023816;28;19925;-56
2021/04/19 04:17:19;;;;;;;;;;;19.10;51.70;;;;;;4990808;28;20604;-53
2021/04/19 04:19:45;;;;;;;;;;;19.00;51.70;;;;;;5026849;28;19932;-53
2021/04/19 04:22:12;;;;;;;;;;;19.10;51.70;;;;;;5033532;28;19925;-56
2021/04/19 04:24:38;;;;;;;;;;;19.00;51.60;;;;;;5039569;28;19932;-56
2021/04/19 04:27:06;;;;;;;;;;;19.00;51.70;;;;;;5042610;28;19932;-55
2021/04/19 04:29:32;;;;;;;;;;;19.00;51.70;;;;;;5038007;28;19936;-56
2021/04/19 04:31:58;;;;;;;;;;;19.00;51.60;;;;;;5040444;28;20445;-57
2021/04/19 04:34:24;;;;;;;;;;;19.00;51.60;;;;;;5037055;28;19941;-57
2021/04/19 04:36:51;;;;;;;;;;;19.00;51.60;;;;;;5045891;28;19925;-55
2021/04/19 04:39:17;;;;;;;;;;;19.00;51.60;;;;;;5040083;28;20404;-57
2021/04/19 04:41:43;;;;;;;;;;;19.00;51.50;;;;;;5041784;28;20126;-55
2021/04/19 04:44:11;;;;;;;;;;;19.00;51.60;;;;;;5043548;28;20809;-56
2021/04/19 04:46:45;;;;;;;;;;;19.00;51.50;;;;;;5039576;28;19928;-56
2021/04/19 04:49:14;;;;;;;;;;;19.00;51.50;;;;;;5038383;28;20673;-56
2021/04/19 04:51:42;;;;;;;;;;;19.00;51.50;;;;;;5032903;28;19933;-56
2021/04/19 04:54:10;;;;;;;;;;;19.00;51.50;;;;;;5039244;28;20020;-56
2021/04/19 04:56:38;;;;;;;;;;;18.90;51.40;;;;;;5036659;28;20301;-57
2021/04/19 04:59:05;;;;;;;;;;;18.90;51.50;;;;;;5037614;28;19933;-56
2021/04/19 05:01:32;;;;;;;;;;;18.90;51.40;;;;;;5036821;28;20298;-56
2021/04/19 05:04:00;;;;;;;;;;;19.00;51.40;;;;;;5028489;28;20388;-57
2021/04/19 05:06:26;;;;;;;;;;;19.00;51.40;;;;;;5045417;28;20292;-56
2021/04/19 05:08:53;;;;;;;;;;;19.00;51.40;;;;;;5040966;28;19925;-54
2021/04/19 05:11:44;;;;;;;;;;;19.00;51.40;;;;;;5047889;28;19928;-57
2021/04/19 05:14:10;;;;;;;;;;;18.90;51.40;;;;;;5044233;28;21022;-56
2021/04/19 05:16:37;;;;;;;;;;;18.90;51.40;;;;;;5045620;28;19932;-56
2021/04/19 05:19:05;;;;;;;;;;;18.90;51.40;;;;;;5038993;28;19940;-53
2021/04/19 05:21:32;;;;;;;;;;;18.90;51.40;;;;;;5036206;28;19925;-55
2021/04/19 05:23:58;;;;;;;;;;;18.90;51.40;;;;;;5045108;28;19961;-54
2021/04/19 05:26:25;;;;;;;;;;;18.90;51.40;;;;;;5043406;28;19991;-55
2021/04/19 05:28:51;;;;;;;;;;;18.90;51.80;;;;;;5043314;28;19925;-55
2021/04/19 05:31:23;;;;;;;;;;;18.90;52.70;;;;;;5047794;28;20239;-54
2021/04/19 05:33:53;;;;;;;;;;;18.90;52.10;;;;;;5046987;28;19964;-55
2021/04/19 05:36:19;;;;;;;;;;;18.90;52.30;;;;;;5049945;28;19929;-60
2021/04/19 05:38:46;;;;;;;;;;;18.90;52.30;;;;;;5054142;28;19924;-59
2021/04/19 05:41:13;;;;;;;;;;;18.90;52.20;;;;;;5047366;28;19940;-61
2021/04/19 05:43:42;;;;;;;;;;;18.90;52.30;;;;;;5037568;28;21613;-60
2021/04/19 05:46:11;;;;;;;;;;;18.90;52.30;;;;;;5043662;28;19932;-60
2021/04/19 05:48:37;;;;;;;;;;;18.90;52.20;;;;;;5043553;28;19925;-60
2021/04/19 05:51:08;;;;;;;;;;;18.90;52.20;;;;;;5043282;28;19954;-60
2021/04/19 05:53:34;;;;;;;;;;;18.90;52.20;;;;;;5044611;28;19940;-60
2021/04/19 05:56:03;;;;;;;;;;;18.90;52.90;;;;;;5028007;28;19932;-55
2021/04/19 05:58:36;;;;;;;;;;;18.90;52.90;;;;;;5045745;28;19983;-54
2021/04/19 06:01:07;;;;;;;;;;;18.80;52.80;;;;;;5038175;28;19986;-55
2021/04/19 06:03:53;;;;;;;;;;;18.80;52.70;;;;;;5040201;28;20034;-55
2021/04/19 06:06:25;;;;;;;;;;;18.90;52.70;;;;;;5019771;28;20251;-55
2021/04/19 06:08:59;;;;;;;;;;;18.90;52.60;;;;;;5031549;28;19933;-55
2021/04/19 06:11:49;;;;;;;;;;;18.90;52.50;;;;;;5049429;28;19932;-55
2021/04/19 06:14:16;;;;;;;;;;;18.90;52.40;;;;;;5047733;28;20713;-55
2021/04/19 06:16:43;;;;;;;;;;;18.90;52.40;;;;;;5044000;28;19929;-62
2021/04/19 06:19:10;;;;;;;;;;;19.00;53.50;;;;;;5038847;28;20550;-62
2021/04/19 06:21:42;;;;;;;;;;;19.90;51.50;;;;;;5044501;28;19932;-61
2021/04/19 06:24:09;;;;;;;;;;;20.70;50.20;;;;;;5031192;28;20007;-62
2021/04/19 06:26:36;;;;;;;;;;;21.30;49.40;;;;;;5027384;28;20380;-62
2021/04/19 06:29:03;;;;;;;;;;;21.70;49.00;;;;;;5025298;28;19979;-64
2021/04/19 06:31:31;;;;;;;;;;;22.00;48.30;;;;;;5014583;28;20027;-60
2021/04/19 06:34:02;;;;;;;;;;;22.20;47.80;;;;;;5023122;28;19925;-59
2021/04/19 06:36:30;;;;;;;;;;;22.40;47.60;;;;;;5029292;28;20355;-60
2021/04/19 06:38:56;;;;;;;;;;;22.60;47.10;;;;;;5027333;28;19955;-59
2021/04/19 06:41:22;;;;;;;;;;;22.80;46.70;;;;;;5022443;28;20306;-58
2021/04/19 06:43:49;;;;;;;;;;;23.10;46.20;;;;;;5025944;28;19929;-58
2021/04/19 06:46:15;;;;;;;;;;;23.30;45.80;;;;;;5027069;28;19932;-58
2021/04/19 06:48:41;;;;;;;;;;;23.50;45.50;;;;;;5030126;28;19952;-58
2021/04/19 06:51:11;;;;;;;;;;;23.70;45.10;;;;;;5029201;28;20273;-55
2021/04/19 06:53:37;;;;;;;;;;;23.80;45.50;;;;;;5020909;28;19925;-55
2021/04/19 06:56:06;;;;;;;;;;;23.00;44.30;;;;;;5025598;28;19964;-60
2021/04/19 06:58:33;;;;;;;;;;;22.70;44.70;;;;;;5024159;28;19933;-64
2021/04/19 07:01:01;;;;;;;;;;;22.60;45.00;;;;;;5028552;28;20374;-61
2021/04/19 07:03:28;;;;;;;;;;;23.10;45.00;;;;;;5024340;28;19988;-61
2021/04/19 07:05:54;;;;;;;;;;;23.70;44.20;;;;;;5022099;28;20317;-63
2021/04/19 07:08:26;;;;;;;;;;;24.00;43.70;;;;;;5024473;28;19929;-62
2021/04/19 07:10:54;;;;;;;;;;;24.30;43.30;;;;;;5024046;28;20358;-64
2021/04/19 07:13:21;;;;;;;;;;;24.50;43.20;;;;;;5023420;28;19925;-63
2021/04/19 07:15:47;;;;;;;;;;;24.60;43.10;;;;;;5002530;28;19944;-62
2021/04/19 07:18:14;;;;;;;;;;;24.70;42.80;;;;;;5026305;28;19929;-62
2021/04/19 07:20:41;;;;;;;;;;;24.80;42.70;;;;;;5014448;28;20142;-60
2021/04/19 07:23:07;;;;;;;;;;;24.20;40.30;;;;;;5021426;28;19929;-59
2021/04/19 07:25:33;;;;;;;;;;;23.20;42.40;;;;;;5014080;28;19933;-60
2021/04/19 07:28:02;;;;;;;;;;;22.50;44.10;;;;;;5027807;28;19936;-62
2021/04/19 07:30:28;;;;;;;;;;;22.60;45.90;;;;;;5024097;28;19925;-57
2021/04/19 07:32:55;;;;;;;;;;;23.50;44.60;;;;;;5025228;28;19926;-56
2021/04/19 07:35:25;;;;;;;;;;;24.10;43.90;;;;;;5026407;28;19929;-56
2021/04/19 07:37:57;;;;;;;;;;;24.60;43.40;;;;;;5023899;28;19940;-58
2021/04/19 07:40:47;;;;;;;;;;;24.90;43.10;;;;;;5027517;28;19925;-57
2021/04/19 07:43:18;;;;;;;;;;;25.00;43.00;;;;;;5020526;28;20959;-59
2021/04/19 07:46:08;;;;;;;;;;;25.30;42.60;;;;;;5014815;28;22129;-59
2021/04/19 07:48:35;;;;;;;;;;;25.40;42.70;;;;;;5022191;28;19955;-58
2021/04/19 07:51:21;;;;;;;;;;;25.50;42.40;;;;;;5016046;28;19983;-57
2021/04/19 07:53:48;;;;;;;;;;;25.60;42.20;;;;;;5020262;28;20768;-58
2021/04/19 07:56:15;;;;;;;;;;;25.80;42.20;;;;;;5020971;28;19925;-63
2021/04/19 07:58:42;;;;;;;;;;;25.90;42.10;;;;;;5019236;28;19936;-58
2021/04/19 08:01:10;;;;;;;;;;;26.00;42.10;;;;;;5019401;28;21532;-59
2021/04/19 08:03:38;;;;;;;;;;;26.00;42.10;;;;;;5025535;28;20366;-57
2021/04/19 08:06:20;;;;;;;;;;;26.10;42.00;;;;;;5024761;28;20836;-57
2021/04/19 08:08:48;;;;;;;;;;;26.20;42.00;;;;;;5028926;28;21378;-58
2021/04/19 08:11:15;;;;;;;;;;;26.30;41.90;;;;;;5033927;28;19932;-59
2021/04/19 08:13:42;;;;;;;;;;;26.40;41.90;;;;;;5025771;28;20953;-56
2021/04/19 08:16:12;;;;;;;;;;;26.50;41.80;;;;;;5034646;28;20285;-60
2021/04/19 08:18:39;;;;;;;;;;;26.50;41.90;;;;;;5033159;28;19929;-60
2021/04/19 08:21:26;;;;;;;;;;;26.70;42.00;;;;;;5029441;28;20432;-62
2021/04/19 08:23:52;;;;;;;;;;;26.70;41.80;;;;;;5013303;28;20071;-62
2021/04/19 08:26:19;;;;;;;;;;;26.70;41.80;;;;;;5028266;28;19929;-57
2021/04/19 08:28:48;;;;;;;;;;;26.80;41.80;;;;;;5028135;28;21308;-62
2021/04/19 08:31:15;;;;;;;;;;;26.90;41.50;;;;;;5024855;28;19952;-60
2021/04/19 08:33:42;;;;;;;;;;;27.00;41.60;;;;;;5024749;28;21852;-58
2021/04/19 08:36:11;;;;;;;;;;;27.10;41.70;;;;;;5015417;28;21774;-58
2021/04/19 08:38:38;;;;;;;;;;;27.20;41.30;;;;;;5022660;28;19983;-60
2021/04/19 08:41:05;;;;;;;;;;;27.30;41.40;;;;;;5006986;28;25523;-62
2021/04/19 08:43:34;;;;;;;;;;;27.20;42.40;;;;;;5007212;28;20301;-62
2021/04/19 08:46:02;;;;;;;;;;;26.60;42.40;;;;;;5008010;28;19932;-59
2021/04/19 08:48:28;;;;;;;;;;;26.10;42.90;;;;;;5024748;28;19929;-58
2021/04/19 08:50:54;;;;;;;;;;;25.20;40.20;;;;;;4993615;28;19932;-58
2021/04/19 08:53:20;;;;;;;;;;;24.60;40.70;;;;;;5021617;28;19933;-62
2021/04/19 08:55:48;;;;;;;;;;;24.40;44.70;;;;;;5025213;28;19925;-58
2021/04/19 08:58:16;;;;;;;;;;;24.60;44.60;;;;;;5026446;28;20508;-62
2021/04/19 09:00:47;;;;;;;;;;;24.60;44.10;;;;;;5023470;28;19934;-58
2021/04/19 09:03:17;;;;;;;;;;;24.70;44.80;;;;;;5025603;28;19932;-57
2021/04/19 09:05:44;;;;;;;;;;;24.70;45.70;;;;;;5035860;28;19925;-63
2021/04/19 09:08:21;;;;;;;;;;;24.70;46.30;;;;;;5026835;28;19948;-57
2021/04/19 09:10:50;;;;;;;;;;;24.60;45.90;;;;;;5023160;28;20483;-57
2021/04/19 09:13:26;;;;;;;;;;;24.60;46.20;;;;;;5025865;28;20378;-57
2021/04/19 09:15:53;;;;;;;;;;;24.60;46.20;;;;;;5029332;28;19928;-58
2021/04/19 09:18:20;;;;;;;;;;;24.60;46.50;;;;;;5026999;28;19932;-58
2021/04/19 09:20:48;;;;;;;;;;;24.60;46.30;;;;;;5028103;28;19935;-57
2021/04/19 09:23:30;;;;;;;;;;;24.60;45.90;;;;;;5026339;28;19925;-64
2021/04/19 09:25:56;;;;;;;;;;;24.60;45.80;;;;;;5014024;28;19925;-58
2021/04/19 09:28:41;;;;;;;;;;;24.60;46.30;;;;;;5020755;28;19933;-57
2021/04/19 09:31:11;;;;;;;;;;;24.50;46.30;;;;;;5027883;28;19981;-57
2021/04/19 09:33:38;;;;;;;;;;;24.50;46.10;;;;;;5019885;28;19983;-58
2021/04/19 09:36:05;;;;;;;;;;;24.50;46.60;;;;;;5027171;28;19933;-59
2021/04/19 09:38:31;;;;;;;;;;;24.40;46.60;;;;;;5020645;28;19925;-58
2021/04/19 09:40:59;;;;;;;;;;;24.40;46.70;;;;;;5026683;28;19925;-62
2021/04/19 09:43:35;;;;;;;;;;;24.40;46.90;;;;;;5023473;28;20767;-62
2021/04/19 09:46:23;;;;;;;;;;;24.40;46.80;;;;;;5014486;28;19930;-63
2021/04/19 09:48:52;;;;;;;;;;;24.40;46.40;;;;;;5010196;28;20329;-61
2021/04/19 09:51:37;;;;;;;;;;;24.40;46.00;;;;;;5012788;28;19936;-62
2021/04/19 09:54:11;;;;;;;;;;;24.40;45.70;;;;;;5020433;28;19935;-61
2021/04/19 09:56:48;;;;;;;;;;;24.30;45.70;;;;;;5017471;28;19932;-57
2021/04/19 09:59:15;;;;;;;;;;;24.30;45.90;;;;;;5015520;28;20672;-63
2021/04/19 10:01:44;;;;;;;;;;;24.20;45.70;;;;;;5028119;28;19929;-59
2021/04/19 10:04:11;;;;;;;;;;;24.20;46.00;;;;;;5017995;28;21682;-58
2021/04/19 10:06:50;;;;;;;;;;;24.20;45.30;;;;;;5019131;28;19933;-57
2021/04/19 10:09:21;;;;;;;;;;;23.80;42.90;;;;;;5012940;28;19929;-54
2021/04/19 10:11:49;;;;;;;;;;;23.30;43.50;;;;;;4997497;28;19925;-59
2021/04/19 10:14:16;;;;;;;;;;;23.00;44.10;;;;;;5020181;28;19944;-58
2021/04/19 10:16:44;;;;;;;;;;;22.90;44.60;;;;;;5030853;28;19926;-55
2021/04/19 10:19:11;;;;;;;;;;;22.80;44.80;;;;;;5030346;28;20285;-56
2021/04/19 10:21:38;;;;;;;;;;;22.60;45.00;;;;;;5033775;28;19925;-54
2021/04/19 10:24:13;;;;;;;;;;;22.60;45.20;;;;;;5042776;28;21380;-55
2021/04/19 10:26:39;;;;;;;;;;;22.50;45.20;;;;;;5051607;28;19948;-54
2021/04/19 10:29:16;;;;;;;;;;;22.50;45.40;;;;;;5055180;28;19925;-55
2021/04/19 10:31:49;;;;;;;;;;;22.40;45.60;;;;;;5034227;28;20986;-57
2021/04/19 10:34:16;;;;;;;;;;;22.30;45.70;;;;;;5036599;28;20312;-56
2021/04/19 10:36:53;;;;;;;;;;;22.30;45.70;;;;;;5046343;28;19925;-57
2021/04/19 10:39:21;;;;;;;;;;;22.20;45.80;;;;;;5038099;28;20431;-58
2021/04/19 10:41:48;;;;;;;;;;;22.10;46.00;;;;;;5041960;28;20277;-57
2021/04/19 10:44:16;;;;;;;;;;;22.10;46.10;;;;;;5044163;28;19979;-58
2021/04/19 10:46:43;;;;;;;;;;;22.10;46.10;;;;;;5042011;28;19928;-62
2021/04/19 10:49:20;;;;;;;;;;;22.10;48.10;;;;;;5045999;28;19936;-63
2021/04/19 10:51:50;;;;;;;;;;;22.40;47.90;;;;;;5043659;28;21939;-62
2021/04/19 10:54:16;;;;;;;;;;;22.50;47.70;;;;;;5041268;28;19941;-62
2021/04/19 10:56:43;;;;;;;;;;;22.60;48.30;;;;;;5043833;28;19952;-64
2021/04/19 10:59:10;;;;;;;;;;;22.70;48.00;;;;;;5043165;28;19948;-62
2021/04/19 11:01:38;;;;;;;;;;;22.70;47.90;;;;;;5040884;28;20003;-62
2021/04/19 11:04:06;;;;;;;;;;;22.80;48.20;;;;;;5042538;28;19929;-65
2021/04/19 11:06:36;;;;;;;;;;;22.80;48.10;;;;;;5040927;28;21096;-63
2021/04/19 11:09:08;;;;;;;;;;;22.80;48.70;;;;;;5039909;28;20281;-62
2021/04/19 11:11:34;;;;;;;;;;;22.90;48.60;;;;;;5042509;28;19932;-63
2021/04/19 11:14:14;;;;;;;;;;;22.90;48.90;;;;;;5043557;28;19932;-63
2021/04/19 11:16:53;;;;;;;;;;;23.00;48.00;;;;;;5043218;28;20992;-62
2021/04/19 11:19:28;;;;;;;;;;;23.00;48.00;;;;;;5042082;28;20566;-64
2021/04/19 11:21:55;;;;;;;;;;;23.10;48.00;;;;;;5042847;28;19932;-63
2021/04/19 11:24:21;;;;;;;;;;;23.10;47.80;;;;;;5036262;28;19929;-62
2021/04/19 11:26:48;;;;;;;;;;;23.10;48.10;;;;;;5034985;28;20004;-61
2021/04/19 11:29:33;;;;;;;;;;;23.20;48.00;;;;;;5035610;28;19932;-61
2021/04/19 11:32:00;;;;;;;;;;;23.20;47.70;;;;;;5003156;28;20455;-61
2021/04/19 11:34:33;;;;;;;;;;;23.20;47.80;;;;;;5038249;28;19932;-61
2021/04/19 11:37:27;;;;;;;;;;;23.20;47.40;;;;;;5041628;28;19933;-58
2021/04/19 11:39:55;;;;;;;;;;;23.30;47.30;;;;;;5027515;28;21393;-58
2021/04/19 11:42:33;;;;;;;;;;;23.30;47.20;;;;;;5042120;28;19932;-59
2021/04/19 11:45:00;;;;;;;;;;;23.30;47.10;;;;;;5042458;28;19940;-58
2021/04/19 11:47:26;;;;;;;;;;;23.30;46.80;;;;;;5031717;28;19929;-58
2021/04/19 11:49:53;;;;;;;;;;;23.30;47.20;;;;;;5043580;28;19929;-59
2021/04/19 11:52:19;;;;;;;;;;;23.40;46.90;;;;;;5046370;28;19925;-59
2021/04/19 11:54:46;;;;;;;;;;;23.40;47.20;;;;;;5042366;28;19971;-58
2021/04/19 11:57:13;;;;;;;;;;;23.40;47.30;;;;;;5041441;28;19933;-59
2021/04/19 11:59:40;;;;;;;;;;;23.40;47.00;;;;;;5039551;28;19924;-59
2021/04/19 12:02:07;;;;;;;;;;;23.40;46.80;;;;;;5042932;28;19932;-62
2021/04/19 12:04:34;;;;;;;;;;;23.50;47.50;;;;;;5038512;28;20640;-63
2021/04/19 12:07:01;;;;;;;;;;;23.50;47.50;;;;;;5043190;28;19924;-61
2021/04/19 12:09:27;;;;;;;;;;;23.50;47.50;;;;;;5041442;28;20047;-61
2021/04/19 12:11:53;;;;;;;;;;;23.60;46.90;;;;;;5040921;28;20270;-63
2021/04/19 12:14:19;;;;;;;;;;;23.50;47.30;;;;;;5041264;28;20428;-61
2021/04/19 12:16:46;;;;;;;;;;;23.50;47.20;;;;;;5042538;28;19933;-58
2021/04/19 12:19:12;;;;;;;;;;;23.60;47.30;;;;;;5043580;28;19929;-57
2021/04/19 12:21:39;;;;;;;;;;;23.60;47.40;;;;;;5042287;28;20011;-59
2021/04/19 12:24:05;;;;;;;;;;;23.60;47.10;;;;;;5038161;28;20201;-60
2021/04/19 12:26:32;;;;;;;;;;;23.60;47.60;;;;;;5036023;28;19932;-59
2021/04/19 12:29:10;;;;;;;;;;;23.60;47.20;;;;;;5039706;28;20271;-61
2021/04/19 12:31:36;;;;;;;;;;;23.70;46.50;;;;;;5040638;28;20425;-61
2021/04/19 12:34:03;;;;;;;;;;;23.70;46.40;;;;;;5038291;28;19935;-57
2021/04/19 12:36:31;;;;;;;;;;;23.30;44.00;;;;;;5039993;28;19940;-57
2021/04/19 12:38:57;;;;;;;;;;;23.00;44.20;;;;;;5041147;28;19932;-56
2021/04/19 12:41:24;;;;;;;;;;;22.80;44.60;;;;;;5044776;28;19974;-57
2021/04/19 12:43:50;;;;;;;;;;;22.70;45.40;;;;;;5042018;28;19933;-62
2021/04/19 12:46:16;;;;;;;;;;;23.00;46.90;;;;;;5046007;28;19925;-64
2021/04/19 12:48:42;;;;;;;;;;;23.80;46.40;;;;;;5041528;28;19924;-63
2021/04/19 12:51:12;;;;;;;;;;;23.80;46.40;;;;;;5030617;28;19933;-63
2021/04/19 12:53:38;;;;;;;;;;;23.70;46.40;;;;;;5045086;28;19933;-66
2021/04/19 12:56:04;;;;;;;;;;;23.70;47.50;;;;;;5038953;28;19935;-59
2021/04/19 12:58:30;;;;;;;;;;;23.20;44.50;;;;;;5040404;28;19925;-59
2021/04/19 13:00:57;;;;;;;;;;;22.80;45.50;;;;;;5039087;28;19929;-60
2021/04/19 13:03:23;;;;;;;;;;;22.70;46.10;;;;;;5043551;28;19929;-62
2021/04/19 13:05:50;;;;;;;;;;;22.90;47.90;;;;;;5043241;28;20248;-64
2021/04/19 13:08:18;;;;;;;;;;;23.20;47.90;;;;;;5041552;28;20312;-63
2021/04/19 13:10:44;;;;;;;;;;;23.30;47.40;;;;;;5041134;28;20308;-61
2021/04/19 13:13:10;;;;;;;;;;;23.40;47.40;;;;;;5038079;28;22017;-61
2021/04/19 13:15:36;;;;;;;;;;;23.50;47.00;;;;;;5043844;28;20378;-60
2021/04/19 13:18:03;;;;;;;;;;;23.50;46.90;;;;;;5042369;28;19928;-62
2021/04/19 13:20:30;;;;;;;;;;;23.60;47.00;;;;;;5037102;28;20628;-63
2021/04/19 13:22:56;;;;;;;;;;;23.70;47.20;;;;;;5038861;28;19925;-61
2021/04/19 13:25:23;;;;;;;;;;;23.70;46.80;;;;;;5034074;28;19972;-60
2021/04/19 13:27:50;;;;;;;;;;;23.70;47.10;;;;;;5036157;28;19929;-58
2021/04/19 13:30:16;;;;;;;;;;;23.70;46.70;;;;;;5037087;28;19979;-58
2021/04/19 13:32:43;;;;;;;;;;;23.80;46.50;;;;;;5037832;28;20369;-59
2021/04/19 13:35:10;;;;;;;;;;;23.80;47.10;;;;;;5039874;28;19935;-59
2021/04/19 13:37:37;;;;;;;;;;;23.90;46.90;;;;;;5039401;28;20033;-60
2021/04/19 13:40:05;;;;;;;;;;;23.90;47.30;;;;;;5041481;28;19932;-60
2021/04/19 13:42:31;;;;;;;;;;;23.90;46.60;;;;;;5047079;28;19924;-57
2021/04/19 13:44:57;;;;;;;;;;;23.90;46.70;;;;;;5042910;28;19928;-60
2021/04/19 13:47:23;;;;;;;;;;;23.90;46.60;;;;;;5041546;28;19971;-59
2021/04/19 13:49:49;;;;;;;;;;;24.00;46.80;;;;;;5043126;28;20309;-59
2021/04/19 13:52:16;;;;;;;;;;;24.00;46.50;;;;;;5047696;28;19929;-61
2021/04/19 13:54:43;;;;;;;;;;;24.00;46.70;;;;;;5045315;28;19925;-63
2021/04/19 13:57:09;;;;;;;;;;;24.00;46.60;;;;;;5044978;28;19933;-61
2021/04/19 13:59:35;;;;;;;;;;;24.00;46.60;;;;;;5041882;28;19933;-60
2021/04/19 14:02:01;;;;;;;;;;;24.10;46.40;;;;;;5043406;28;19932;-59
2021/04/19 14:04:27;;;;;;;;;;;24.10;46.50;;;;;;5043796;28;20029;-61
2021/04/19 14:06:53;;;;;;;;;;;24.10;46.50;;;;;;5044653;28;19925;-62
2021/04/19 14:09:20;;;;;;;;;;;24.80;44.90;;;;;;5038814;28;19936;-62
2021/04/19 14:11:46;;;;;;;;;;;25.50;43.50;;;;;;5045004;28;20003;-61
2021/04/19 14:14:16;;;;;;;;;;;26.00;42.90;;;;;;5041066;28;19931;-60
2021/04/19 14:16:42;;;;;;;;;;;25.60;44.30;;;;;;5043713;28;19939;-61
2021/04/19 14:19:08;;;;;;;;;;;25.20;45.30;;;;;;5043053;28;20314;-63
2021/04/19 14:21:34;;;;;;;;;;;25.00;45.70;;;;;;5038381;28;19933;-58
2021/04/19 14:24:03;;;;;;;;;;;24.90;45.90;;;;;;5045362;28;20396;-58